Time;durP1;ratioP1;P1;durP2;ratioP2;P2;SDS_P1;SDS_P2;PMS_P1;PMS_P2;Temp;Humidity;BMP_temperature;BMP_pressure;BME280_temperature;BME280_humidity;BME280_pressure;Samples;Min_cycle;Max_cycle;Signal;HPM_P1;HPM_P2
2022/11/12 00:02:11;;;;;;;;;;;;;;;6.45;83.64;103091.38;5050033;28;20457;-56
2022/11/12 00:04:36;;;;;;;;;;;;;;;6.48;83.49;103093.81;5052348;28;19927;-56
2022/11/12 00:07:01;;;;;;;;;;;;;;;6.46;83.62;103085.16;5049571;28;20004;-55
2022/11/12 00:09:26;;;;;;;;;;;;;;;6.47;83.67;103089.50;5047649;28;19928;-55
2022/11/12 00:11:51;;;;;;;;;;;;;;;6.46;83.62;103095.72;5044514;28;20388;-56
2022/11/12 00:14:17;;;;;;;;;;;;;;;6.41;83.78;103085.41;5044987;28;19917;-53
2022/11/12 00:16:42;;;;;;;;;;;;;;;6.39;83.88;103089.09;5052657;28;20383;-55
2022/11/12 00:19:07;;;;;;;;;;;;;;;6.34;83.81;103083.19;5046548;28;20023;-56
2022/11/12 00:21:32;;;;;;;;;;;;;;;6.31;83.62;103097.41;5054810;28;19917;-55
2022/11/12 00:23:57;;;;;;;;;;;;;;;6.30;83.46;103097.50;5044992;28;20288;-56
2022/11/12 00:26:22;;;;;;;;;;;;;;;6.32;83.55;103095.63;5047694;28;20004;-56
2022/11/12 00:28:48;;;;;;;;;;;;;;;6.35;83.53;103103.38;5040708;28;19917;-54
2022/11/12 00:31:13;;;;;;;;;;;;;;;6.38;83.80;103092.66;5047620;28;19955;-56
2022/11/12 00:33:39;;;;;;;;;;;;;;;6.41;83.50;103108.31;5049478;28;19921;-55
2022/11/12 00:36:05;;;;;;;;;;;;;;;6.42;83.71;103097.69;5047747;28;20335;-56
2022/11/12 00:38:30;;;;;;;;;;;;;;;6.44;83.54;103101.06;5048963;28;19917;-55
2022/11/12 00:40:58;;;;;;;;;;;;;;;6.46;83.44;103103.63;5050071;28;19928;-56
2022/11/12 00:43:23;;;;;;;;;;;;;;;6.47;83.42;103116.72;5047042;28;19923;-56
2022/11/12 00:45:49;;;;;;;;;;;;;;;6.44;83.74;103106.34;5045882;28;19921;-54
2022/11/12 00:48:14;;;;;;;;;;;;;;;6.41;83.66;103106.53;5047078;28;19917;-55
2022/11/12 00:50:39;;;;;;;;;;;;;;;6.39;83.67;103103.13;5044879;28;19917;-56
2022/11/12 00:53:04;;;;;;;;;;;;;;;6.37;83.56;103105.00;5052285;28;19978;-55
2022/11/12 00:55:29;;;;;;;;;;;;;;;6.36;83.45;103097.16;5047270;28;19917;-52
2022/11/12 00:57:56;;;;;;;;;;;;;;;6.33;83.25;103099.97;5047343;28;19951;-54
2022/11/12 01:00:21;;;;;;;;;;;;;;;6.33;83.38;103102.59;5046149;28;20453;-54
2022/11/12 01:02:46;;;;;;;;;;;;;;;6.32;83.29;103095.63;5044853;28;20043;-56
2022/11/12 01:05:12;;;;;;;;;;;;;;;6.33;83.65;103102.59;5049124;28;20011;-55
2022/11/12 01:07:37;;;;;;;;;;;;;;;6.33;83.66;103105.25;5046914;28;19927;-56
2022/11/12 01:10:02;;;;;;;;;;;;;;;6.28;84.04;103096.75;5047187;28;19931;-53
2022/11/12 01:12:29;;;;;;;;;;;;;;;6.23;83.90;103094.38;5048828;28;20486;-56
2022/11/12 01:14:55;;;;;;;;;;;;;;;6.23;84.09;103099.66;5041879;28;20347;-55
2022/11/12 01:17:20;;;;;;;;;;;;;;;6.21;84.02;103098.88;5050480;28;19917;-55
2022/11/12 01:19:45;;;;;;;;;;;;;;;6.19;83.90;103100.75;5047139;28;20011;-55
2022/11/12 01:22:11;;;;;;;;;;;;;;;6.17;84.03;103097.38;5044134;28;19917;-55
2022/11/12 01:24:36;;;;;;;;;;;;;;;6.17;83.95;103103.50;5044875;28;20339;-54
2022/11/12 01:27:01;;;;;;;;;;;;;;;6.18;84.04;103099.06;5049051;28;20307;-54
2022/11/12 01:29:26;;;;;;;;;;;;;;;6.17;83.85;103092.09;5043576;28;20011;-56
2022/11/12 01:31:51;;;;;;;;;;;;;;;6.14;84.15;103098.38;5054660;28;19921;-52
2022/11/12 01:34:16;;;;;;;;;;;;;;;6.06;84.05;103087.41;5046368;28;19967;-52
2022/11/12 01:36:42;;;;;;;;;;;;;;;6.00;84.05;103082.47;5041192;28;19920;-54
2022/11/12 01:39:07;;;;;;;;;;;;;;;5.95;83.77;103086.31;5047239;28;19932;-55
2022/11/12 01:41:37;;;;;;;;;;;;;;;5.88;83.99;103080.50;5048611;28;19960;-56
2022/11/12 01:44:16;;;;;;;;;;;;;;;5.82;83.72;103086.97;5044106;28;21706;-55
2022/11/12 01:46:46;;;;;;;;;;;;;;;5.78;83.66;103089.84;5043733;28;20433;-56
2022/11/12 01:49:15;;;;;;;;;;;;;;;5.73;83.72;103083.97;5047348;28;19955;-54
2022/11/12 01:51:43;;;;;;;;;;;;;;;5.73;83.69;103073.41;5046585;28;19929;-57
2022/11/12 01:54:09;;;;;;;;;;;;;;;5.70;83.91;103077.06;5046015;28;19966;-54
2022/11/12 01:56:35;;;;;;;;;;;;;;;5.70;83.95;103076.22;5045574;28;19920;-55
2022/11/12 01:59:07;;;;;;;;;;;;;;;5.68;84.10;103086.00;5046533;28;19924;-56
2022/11/12 02:01:33;;;;;;;;;;;;;;;5.63;84.14;103088.03;5046715;28;20647;-53
2022/11/12 02:03:59;;;;;;;;;;;;;;;5.64;84.37;103076.56;5049184;28;19917;-55
2022/11/12 02:06:24;;;;;;;;;;;;;;;5.66;84.04;103075.56;5046739;28;19925;-53
2022/11/12 02:08:50;;;;;;;;;;;;;;;5.70;84.04;103070.97;5047823;28;19917;-56
2022/11/12 02:11:17;;;;;;;;;;;;;;;5.71;84.08;103073.50;5047597;28;19924;-55
2022/11/12 02:13:59;;;;;;;;;;;;;;;5.71;84.15;103068.22;5047986;28;19920;-55
2022/11/12 02:16:30;;;;;;;;;;;;;;;5.69;84.28;103070.09;5040793;28;19978;-56
2022/11/12 02:18:55;;;;;;;;;;;;;;;5.67;84.28;103071.97;5046049;28;20928;-55
2022/11/12 02:21:21;;;;;;;;;;;;;;;5.59;84.28;103064.50;5048422;28;20360;-55
2022/11/12 02:23:55;;;;;;;;;;;;;;;5.55;84.33;103070.03;5049197;28;19917;-55
2022/11/12 02:26:20;;;;;;;;;;;;;;;5.53;84.25;103074.53;5049602;28;19925;-56
2022/11/12 02:28:46;;;;;;;;;;;;;;;5.51;84.28;103071.97;5047719;28;19924;-56
2022/11/12 02:31:11;;;;;;;;;;;;;;;5.53;83.94;103079.78;5050102;28;19963;-55
2022/11/12 02:33:36;;;;;;;;;;;;;;;5.53;84.33;103077.16;5051904;28;19927;-55
2022/11/12 02:36:01;;;;;;;;;;;;;;;5.51;84.14;103079.03;5051797;28;19924;-56
2022/11/12 02:38:26;;;;;;;;;;;;;;;5.48;84.20;103082.66;5049926;28;19924;-56
2022/11/12 02:40:52;;;;;;;;;;;;;;;5.44;84.13;103082.91;5051562;28;19921;-55
2022/11/12 02:43:17;;;;;;;;;;;;;;;5.42;84.13;103084.78;5053555;28;19917;-55
2022/11/12 02:45:42;;;;;;;;;;;;;;;5.40;84.24;103086.66;5045537;28;19939;-54
2022/11/12 02:48:07;;;;;;;;;;;;;;;5.38;84.23;103077.97;5050800;28;19956;-55
2022/11/12 02:50:32;;;;;;;;;;;;;;;5.36;84.43;103075.41;5050321;28;20426;-55
2022/11/12 02:52:57;;;;;;;;;;;;;;;5.36;84.20;103074.56;5050559;28;19949;-54
2022/11/12 02:55:23;;;;;;;;;;;;;;;5.35;84.41;103071.09;5050315;28;20407;-56
2022/11/12 02:57:48;;;;;;;;;;;;;;;5.36;84.47;103066.66;5051240;28;19917;-56
2022/11/12 03:00:13;;;;;;;;;;;;;;;5.37;84.35;103066.59;5056104;28;20277;-55
2022/11/12 03:02:41;;;;;;;;;;;;;;;5.40;84.25;103058.50;5044216;28;19974;-56
2022/11/12 03:05:10;;;;;;;;;;;;;;;5.42;84.52;103054.00;5056375;28;19916;-55
2022/11/12 03:07:35;;;;;;;;;;;;;;;5.40;84.64;103060.28;5057720;28;19917;-55
2022/11/12 03:10:00;;;;;;;;;;;;;;;5.33;84.44;103058.94;5041030;28;19923;-55
2022/11/12 03:12:26;;;;;;;;;;;;;;;5.29;84.42;103055.59;5056551;28;20381;-56
2022/11/12 03:14:51;;;;;;;;;;;;;;;5.27;84.58;103062.75;5049379;28;19975;-56
2022/11/12 03:17:16;;;;;;;;;;;;;;;5.23;84.51;103061.22;5050038;28;20439;-52
2022/11/12 03:19:41;;;;;;;;;;;;;;;5.19;84.38;103059.66;5047076;28;19916;-56
2022/11/12 03:22:06;;;;;;;;;;;;;;;5.15;84.40;103061.59;5051038;28;20292;-56
2022/11/12 03:24:31;;;;;;;;;;;;;;;5.15;84.54;103061.59;5048460;28;19921;-56
2022/11/12 03:26:58;;;;;;;;;;;;;;;5.16;84.88;103058.03;5052933;28;20342;-55
2022/11/12 03:29:23;;;;;;;;;;;;;;;5.17;84.80;103056.25;5048205;28;19920;-56
2022/11/12 03:31:48;;;;;;;;;;;;;;;5.18;84.85;103071.97;5050687;28;20347;-53
2022/11/12 03:34:13;;;;;;;;;;;;;;;5.19;84.69;103070.19;5047931;28;19924;-56
2022/11/12 03:36:38;;;;;;;;;;;;;;;5.19;84.94;103068.41;5050163;28;20049;-56
2022/11/12 03:39:03;;;;;;;;;;;;;;;5.19;84.94;103065.75;5048252;28;20273;-56
2022/11/12 03:41:29;;;;;;;;;;;;;;;5.20;84.89;103061.34;5050506;28;19919;-54
2022/11/12 03:43:54;;;;;;;;;;;;;;;5.20;84.74;103067.50;5047771;28;20488;-56
2022/11/12 03:46:19;;;;;;;;;;;;;;;5.18;84.70;103074.59;5048829;28;20047;-56
2022/11/12 03:48:44;;;;;;;;;;;;;;;5.14;84.74;103069.56;5047986;28;20358;-54
2022/11/12 03:51:11;;;;;;;;;;;;;;;5.20;84.90;103067.50;5048507;28;19991;-56
2022/11/12 03:53:36;;;;;;;;;;;;;;;5.24;84.91;103070.81;5048711;28;19917;-56
2022/11/12 03:56:01;;;;;;;;;;;;;;;5.27;84.88;103073.28;5050373;28;19939;-55
2022/11/12 03:58:26;;;;;;;;;;;;;;;5.28;84.96;103075.84;5049659;28;19917;-56
2022/11/12 04:00:51;;;;;;;;;;;;;;;5.26;85.15;103071.59;5047262;28;19974;-56
2022/11/12 04:03:16;;;;;;;;;;;;;;;5.26;84.96;103072.44;5048137;28;19917;-55
2022/11/12 04:08:34;;;;;;;;;;;;;;;5.34;85.33;103076.44;5051338;28;19974;-56
2022/11/12 04:11:00;;;;;;;;;;;;;;;5.36;85.07;103074.56;5049235;28;19999;-56
2022/11/12 04:13:28;;;;;;;;;;;;;;;5.35;85.31;103079.00;5044205;28;20500;-54
2022/11/12 04:24:07;;;;;;;;;;;;;;;5.37;85.68;103068.38;5047860;28;20015;-56
2022/11/12 04:26:32;;;;;;;;;;;;;;;5.36;85.86;103066.66;5054148;28;19928;-56
2022/11/12 04:31:42;;;;;;;;;;;;;;;5.25;85.51;103054.94;5044838;28;20435;-54
2022/11/12 04:36:51;;;;;;;;;;;;;;;5.21;85.32;103048.13;5049377;28;19982;-55
2022/11/12 04:39:16;;;;;;;;;;;;;;;5.17;85.49;103051.81;5048038;28;20380;-55
2022/11/12 04:47:09;;;;;;;;;;;;;;;5.14;85.29;103046.72;5045125;28;19967;-55
2022/11/12 04:49:34;;;;;;;;;;;;;;;5.18;85.38;103045.63;5045873;28;19917;-54
2022/11/12 04:52:05;;;;;;;;;;;;;;;5.20;85.36;103046.44;5048650;28;19919;-55
2022/11/12 04:54:31;;;;;;;;;;;;;;;5.21;85.54;103040.22;5048280;28;19917;-54
2022/11/12 04:56:56;;;;;;;;;;;;;;;5.20;85.13;103033.25;5045689;28;20098;-56
2022/11/12 04:59:21;;;;;;;;;;;;;;;5.21;85.19;103036.75;5045631;28;19927;-56
2022/11/12 05:01:46;;;;;;;;;;;;;;;5.21;85.23;103032.31;5044889;28;19920;-56
2022/11/12 05:04:12;;;;;;;;;;;;;;;5.22;85.13;103033.16;5049281;28;20114;-56
2022/11/12 05:06:52;;;;;;;;;;;;;;;5.23;85.41;103030.44;5048831;28;20372;-56
2022/11/12 05:09:18;;;;;;;;;;;;;;;5.23;85.49;103035.72;5048180;28;19913;-56
2022/11/12 05:11:43;;;;;;;;;;;;;;;5.22;85.22;103039.28;5049969;28;19920;-54
2022/11/12 05:14:08;;;;;;;;;;;;;;;5.21;85.44;103026.19;5047947;28;20002;-56
2022/11/12 05:16:33;;;;;;;;;;;;;;;5.22;85.51;103025.28;5046322;28;20011;-54
2022/11/12 05:18:58;;;;;;;;;;;;;;;5.21;85.34;103020.94;5047009;28;19920;-55
2022/11/12 05:24:08;;;;;;;;;;;;;;;5.20;85.30;103027.97;5046460;28;20006;-56
2022/11/12 05:26:33;;;;;;;;;;;;;;;5.19;85.33;103028.88;5043536;28;19975;-54
2022/11/12 05:28:58;;;;;;;;;;;;;;;5.19;85.66;103017.50;5046537;28;20269;-55
2022/11/12 05:31:23;;;;;;;;;;;;;;;5.18;85.48;103010.53;5052081;28;20006;-55
2022/11/12 05:33:48;;;;;;;;;;;;;;;5.15;85.36;103003.66;5048675;28;19928;-56
2022/11/12 05:36:13;;;;;;;;;;;;;;;5.17;85.49;103009.69;5047771;28;20276;-55
2022/11/12 05:38:39;;;;;;;;;;;;;;;5.17;85.54;103014.09;5048111;28;19982;-55
2022/11/12 05:41:04;;;;;;;;;;;;;;;5.18;85.76;103013.16;5060892;28;20355;-55
2022/11/12 05:43:29;;;;;;;;;;;;;;;5.17;85.67;103008.84;5048877;28;19913;-55
2022/11/12 05:45:54;;;;;;;;;;;;;;;5.18;85.84;103013.16;5045345;28;19933;-55
2022/11/12 05:48:20;;;;;;;;;;;;;;;5.19;85.65;103017.50;5049524;28;19963;-54
2022/11/12 05:50:48;;;;;;;;;;;;;;;5.19;85.59;103018.34;5040099;28;20010;-53
2022/11/12 05:53:13;;;;;;;;;;;;;;;5.18;85.80;103011.38;5047235;28;19928;-56
2022/11/12 05:55:38;;;;;;;;;;;;;;;5.16;85.81;103015.88;5044278;28;19916;-56
2022/11/12 05:58:05;;;;;;;;;;;;;;;5.16;86.21;103013.25;5048374;28;19927;-55
2022/11/12 06:00:30;;;;;;;;;;;;;;;5.15;86.06;103023.88;5044124;28;19991;-56
2022/11/12 06:02:58;;;;;;;;;;;;;;;5.15;85.97;103019.44;5046662;28;19955;-54
2022/11/12 06:05:23;;;;;;;;;;;;;;;5.15;85.91;103021.25;5048607;28;19978;-55
2022/11/12 06:07:48;;;;;;;;;;;;;;;5.15;86.08;103026.50;5047614;28;20351;-57
2022/11/12 06:10:14;;;;;;;;;;;;;;;5.15;86.01;103023.88;5046640;28;19924;-54
2022/11/12 06:12:39;;;;;;;;;;;;;;;5.15;85.99;103021.25;5048340;28;19917;-56
2022/11/12 06:15:04;;;;;;;;;;;;;;;5.16;86.17;103020.31;5043833;28;20588;-55
2022/11/12 06:17:29;;;;;;;;;;;;;;;5.15;86.17;103022.09;5046109;28;19916;-56
2022/11/12 06:19:54;;;;;;;;;;;;;;;5.17;86.07;103022.84;5037016;28;19925;-56
2022/11/12 06:22:20;;;;;;;;;;;;;;;5.17;86.17;103024.63;5048251;28;19948;-54
2022/11/12 06:24:45;;;;;;;;;;;;;;;5.16;86.00;103026.41;5045614;28;19925;-54
2022/11/12 06:27:10;;;;;;;;;;;;;;;5.13;86.16;103023.09;5039473;28;19928;-56
2022/11/12 06:29:35;;;;;;;;;;;;;;;5.09;86.26;103026.84;5044942;28;20364;-55
2022/11/12 06:32:00;;;;;;;;;;;;;;;5.05;86.13;103020.88;5048482;28;19928;-55
2022/11/12 06:34:25;;;;;;;;;;;;;;;5.03;86.42;103019.25;5045398;28;20410;-56
2022/11/12 06:36:51;;;;;;;;;;;;;;;4.99;86.30;103021.22;5045327;28;19921;-55
2022/11/12 06:39:16;;;;;;;;;;;;;;;4.98;86.19;103019.50;5047185;28;20339;-56
2022/11/12 06:41:41;;;;;;;;;;;;;;;4.96;86.36;103022.22;5043451;28;19917;-52
2022/11/12 06:44:06;;;;;;;;;;;;;;;4.94;86.29;103017.97;5046584;28;20069;-56
2022/11/12 06:46:31;;;;;;;;;;;;;;;4.91;86.24;103026.84;5041349;28;19929;-55
2022/11/12 06:48:56;;;;;;;;;;;;;;;4.91;85.94;103026.84;5043909;28;19917;-56
2022/11/12 06:51:21;;;;;;;;;;;;;;;4.91;85.98;103024.22;5052143;28;19978;-55
2022/11/12 06:53:47;;;;;;;;;;;;;;;4.93;86.15;103032.06;5047636;28;19912;-55
2022/11/12 06:56:12;;;;;;;;;;;;;;;4.93;86.17;103027.66;5045464;28;19947;-54
2022/11/12 06:58:38;;;;;;;;;;;;;;;4.93;85.84;103032.94;5041379;28;20377;-53
2022/11/12 07:01:11;;;;;;;;;;;;;;;4.95;86.08;103033.69;5047819;28;19925;-52
2022/11/12 07:03:36;;;;;;;;;;;;;;;4.97;86.11;103033.63;5051508;28;19955;-55
2022/11/12 07:06:05;;;;;;;;;;;;;;;4.99;86.09;103039.66;5047958;28;19924;-53
2022/11/12 07:08:31;;;;;;;;;;;;;;;5.00;86.16;103040.50;5050876;28;19944;-55
2022/11/12 07:10:56;;;;;;;;;;;;;;;4.96;86.29;103043.28;5049877;28;19982;-55
2022/11/12 07:13:21;;;;;;;;;;;;;;;4.98;86.49;103045.84;5054021;28;19919;-57
2022/11/12 07:15:47;;;;;;;;;;;;;;;5.00;86.50;103049.25;5050762;28;19913;-56
2022/11/12 07:18:12;;;;;;;;;;;;;;;5.01;86.30;103040.41;5057268;28;19956;-56
2022/11/12 07:20:37;;;;;;;;;;;;;;;5.02;86.37;103042.13;5053651;28;19912;-55
2022/11/12 07:23:02;;;;;;;;;;;;;;;5.04;86.46;103037.63;5052135;28;19936;-55
2022/11/12 07:25:27;;;;;;;;;;;;;;;5.07;86.72;103039.22;5050640;28;19916;-56
2022/11/12 07:27:53;;;;;;;;;;;;;;;5.09;86.67;103040.84;5057823;28;19917;-56
2022/11/12 07:30:19;;;;;;;;;;;;;;;5.12;86.76;103040.69;5059029;28;19920;-55
2022/11/12 07:32:44;;;;;;;;;;;;;;;5.15;86.75;103044.94;5050792;28;19912;-56
2022/11/12 07:35:09;;;;;;;;;;;;;;;5.14;86.92;103032.69;5054247;28;21372;-56
2022/11/12 07:37:35;;;;;;;;;;;;;;;5.24;86.99;103057.66;5051497;28;19912;-56
2022/11/12 07:40:02;;;;;;;;;;;;;;;5.31;87.05;103047.63;5050675;28;19913;-56
2022/11/12 07:42:27;;;;;;;;;;;;;;;5.38;87.10;103046.34;5049919;28;20006;-57
2022/11/12 07:44:52;;;;;;;;;;;;;;;5.45;87.20;103055.63;5042865;28;19979;-55
2022/11/12 07:47:17;;;;;;;;;;;;;;;5.51;87.47;103050.91;5049990;28;20392;-55
2022/11/12 07:49:43;;;;;;;;;;;;;;;5.57;87.19;103061.09;5052893;28;19924;-55
2022/11/12 07:52:08;;;;;;;;;;;;;;;5.63;87.64;103049.34;5049636;28;20482;-56
2022/11/12 07:54:33;;;;;;;;;;;;;;;5.73;87.58;103060.25;5049239;28;19927;-54
2022/11/12 07:57:00;;;;;;;;;;;;;;;5.80;87.67;103061.63;5052728;28;21440;-56
2022/11/12 07:59:25;;;;;;;;;;;;;;;5.87;87.37;103065.63;5049614;28;20383;-55
2022/11/12 08:01:50;;;;;;;;;;;;;;;5.92;87.50;103066.25;5046035;28;20391;-55
2022/11/12 08:04:15;;;;;;;;;;;;;;;5.98;87.36;103065.03;5050523;28;19917;-55
2022/11/12 08:06:41;;;;;;;;;;;;;;;6.04;87.22;103062.91;5055434;28;19916;-54
2022/11/12 08:09:07;;;;;;;;;;;;;;;6.14;87.50;103066.75;5049532;28;19979;-56
2022/11/12 08:11:32;;;;;;;;;;;;;;;6.23;87.18;103070.63;5046623;28;19927;-56
2022/11/12 08:13:57;;;;;;;;;;;;;;;6.30;86.89;103074.59;5048735;28;19996;-56
2022/11/12 08:16:23;;;;;;;;;;;;;;;6.35;87.21;103080.47;5050997;28;19921;-54
2022/11/12 08:18:48;;;;;;;;;;;;;;;6.41;86.93;103077.50;5050565;28;19913;-56
2022/11/12 08:21:14;;;;;;;;;;;;;;;6.44;86.59;103084.38;5048209;28;20011;-56
2022/11/12 08:23:39;;;;;;;;;;;;;;;6.47;86.89;103085.06;5050525;28;20335;-55
2022/11/12 08:26:06;;;;;;;;;;;;;;;6.52;86.83;103087.44;5047840;28;20009;-55
2022/11/12 08:28:32;;;;;;;;;;;;;;;6.58;86.79;103081.78;5046978;28;20296;-55
2022/11/12 08:30:57;;;;;;;;;;;;;;;6.66;86.83;103078.72;5053620;28;19912;-56
2022/11/12 08:33:22;;;;;;;;;;;;;;;6.72;86.48;103079.19;5050047;28;19913;-56
2022/11/12 08:35:47;;;;;;;;;;;;;;;6.76;86.56;103074.59;5049527;28;20272;-54
2022/11/12 08:38:13;;;;;;;;;;;;;;;6.81;86.54;103077.78;5049853;28;19920;-56
2022/11/12 08:40:38;;;;;;;;;;;;;;;6.86;86.68;103081.00;5047542;28;19992;-54
2022/11/12 08:43:05;;;;;;;;;;;;;;;6.93;86.89;103074.41;5044598;28;19952;-56
2022/11/12 08:45:31;;;;;;;;;;;;;;;7.03;86.64;103080.88;5042646;28;19920;-56
2022/11/12 08:48:00;;;;;;;;;;;;;;;7.14;87.18;103082.84;5047916;28;19916;-55
2022/11/12 08:50:25;;;;;;;;;;;;;;;7.21;87.03;103076.22;5042260;28;19978;-56
2022/11/12 08:52:50;;;;;;;;;;;;;;;7.29;86.86;103083.72;5044398;28;20352;-56
2022/11/12 08:55:16;;;;;;;;;;;;;;;7.37;86.72;103090.22;5044663;28;19931;-58
2022/11/12 08:57:42;;;;;;;;;;;;;;;7.40;86.68;103086.53;5047785;28;19939;-55
2022/11/12 09:00:08;;;;;;;;;;;;;;;7.40;86.29;103094.47;5046677;28;19917;-55
2022/11/12 09:02:33;;;;;;;;;;;;;;;7.44;86.25;103095.97;5046217;28;19978;-55
2022/11/12 09:04:58;;;;;;;;;;;;;;;7.48;86.02;103086.91;5046098;28;19917;-53
2022/11/12 09:07:23;;;;;;;;;;;;;;;7.55;86.23;103085.59;5047398;28;19927;-53
2022/11/12 09:09:48;;;;;;;;;;;;;;;7.63;86.34;103085.13;5045445;28;19912;-57
2022/11/12 09:12:18;;;;;;;;;;;;;;;7.69;86.06;103080.28;5048742;28;20365;-56
2022/11/12 09:14:43;;;;;;;;;;;;;;;7.78;86.08;103077.03;5055272;28;19928;-55
2022/11/12 09:17:08;;;;;;;;;;;;;;;7.88;86.33;103076.47;5052323;28;19912;-56
2022/11/12 09:19:33;;;;;;;;;;;;;;;7.96;85.94;103080.31;5052796;28;19920;-56
2022/11/12 09:21:58;;;;;;;;;;;;;;;8.02;86.02;103085.22;5050136;28;20008;-56
2022/11/12 09:24:24;;;;;;;;;;;;;;;8.07;86.07;103084.91;5045241;28;19913;-55
2022/11/12 09:26:51;;;;;;;;;;;;;;;8.09;85.71;103085.66;5056440;28;20399;-56
2022/11/12 09:29:16;;;;;;;;;;;;;;;8.16;85.98;103092.28;5042896;28;20003;-56
2022/11/12 09:31:41;;;;;;;;;;;;;;;8.20;85.85;103087.63;5052334;28;20008;-56
2022/11/12 09:34:06;;;;;;;;;;;;;;;8.26;85.74;103088.06;5050216;28;19917;-56
2022/11/12 09:36:31;;;;;;;;;;;;;;;8.30;85.45;103089.56;5052281;28;19952;-56
2022/11/12 09:38:57;;;;;;;;;;;;;;;8.34;85.54;103096.38;5048469;28;20377;-56
2022/11/12 09:41:25;;;;;;;;;;;;;;;8.39;85.46;103085.50;5047955;28;19955;-55
2022/11/12 09:43:51;;;;;;;;;;;;;;;8.45;85.52;103086.91;5047669;28;19913;-57
2022/11/12 09:46:27;;;;;;;;;;;;;;;8.51;85.04;103083.84;5040564;28;20015;-56
2022/11/12 09:48:55;;;;;;;;;;;;;;;8.56;85.40;103082.56;5046413;28;19916;-56
2022/11/12 09:51:34;;;;;;;;;;;;;;;8.63;85.24;103083.00;5046370;28;19913;-56
2022/11/12 09:54:20;;;;;;;;;;;;;;;8.69;85.32;103079.97;5047778;28;19913;-53
2022/11/12 09:56:46;;;;;;;;;;;;;;;8.74;84.96;103085.81;5037121;28;20469;-56
2022/11/12 09:59:12;;;;;;;;;;;;;;;8.78;85.02;103084.63;5046620;28;19912;-57
2022/11/12 10:01:37;;;;;;;;;;;;;;;8.83;85.11;103085.16;5038245;28;19913;-57
2022/11/12 10:04:11;;;;;;;;;;;;;;;8.89;84.92;103082.09;5048031;28;20392;-55
2022/11/12 10:06:55;;;;;;;;;;;;;;;8.97;84.73;103084.25;5041385;28;19917;-56
2022/11/12 10:09:27;;;;;;;;;;;;;;;9.04;84.59;103087.31;5045702;28;19982;-55
2022/11/12 10:18:02;;;;;;;;;;;;;;;9.28;84.53;103075.03;5041318;28;20430;-57
2022/11/12 10:20:32;;;;;;;;;;;;;;;9.37;84.57;103073.53;5038377;28;20434;-53
2022/11/12 10:23:10;;;;;;;;;;;;;;;9.42;84.34;103074.88;5046354;28;19924;-56
2022/11/12 10:25:36;;;;;;;;;;;;;;;9.51;84.23;103071.56;5048175;28;19923;-56
2022/11/12 10:28:08;;;;;;;;;;;;;;;9.58;84.10;103077.31;5043700;28;20493;-56
2022/11/12 10:30:34;;;;;;;;;;;;;;;9.67;83.77;103074.00;5044842;28;19920;-55
2022/11/12 10:32:59;;;;;;;;;;;;;;;9.75;83.64;103066.31;5048727;28;19917;-55
2022/11/12 10:35:24;;;;;;;;;;;;;;;9.81;83.74;103068.53;5046519;28;19924;-55
2022/11/12 10:37:53;;;;;;;;;;;;;;;9.89;83.51;103060.03;5047005;28;19932;-53
2022/11/12 10:40:24;;;;;;;;;;;;;;;9.99;83.56;103062.84;5047410;28;21540;-54
2022/11/12 10:43:00;;;;;;;;;;;;;;;10.04;82.96;103058.03;5052785;28;19932;-56
2022/11/12 10:45:26;;;;;;;;;;;;;;;10.13;83.30;103054.75;5046097;28;19917;-56
2022/11/12 10:47:51;;;;;;;;;;;;;;;10.18;83.29;103048.13;5049782;28;19924;-57
2022/11/12 10:50:21;;;;;;;;;;;;;;;10.27;82.88;103043.13;5048144;28;19913;-56
2022/11/12 10:52:53;;;;;;;;;;;;;;;10.34;82.94;103044.34;5052212;28;19917;-56
2022/11/12 10:55:20;;;;;;;;;;;;;;;10.41;82.90;103041.13;5046220;28;19916;-57
2022/11/12 10:57:45;;;;;;;;;;;;;;;10.48;82.94;103039.69;5051423;28;19917;-57
2022/11/12 11:00:10;;;;;;;;;;;;;;;10.57;82.62;103043.47;5054604;28;19920;-57
2022/11/12 11:02:36;;;;;;;;;;;;;;;10.65;82.35;103041.06;5050992;28;19913;-56
2022/11/12 11:05:19;;;;;;;;;;;;;;;10.72;82.29;103034.34;5051827;28;19935;-55
2022/11/12 11:07:48;;;;;;;;;;;;;;;10.82;82.26;103031.81;5050052;28;19927;-56
2022/11/12 11:10:22;;;;;;;;;;;;;;;10.91;82.68;103022.25;5050601;28;19916;-56
2022/11/12 11:12:47;;;;;;;;;;;;;;;11.00;82.33;103029.53;5049883;28;19990;-54
2022/11/12 11:15:19;;;;;;;;;;;;;;;11.07;81.55;103020.97;5051493;28;19948;-54
2022/11/12 11:17:44;;;;;;;;;;;;;;;11.16;81.41;103024.69;5042179;28;19917;-56
2022/11/12 11:20:32;;;;;;;;;;;;;;;11.26;81.64;103027.47;5047417;28;19920;-58
2022/11/12 11:23:13;;;;;;;;;;;;;;;11.36;81.42;103025.78;5057437;28;19912;-56
2022/11/12 11:25:40;;;;;;;;;;;;;;;11.46;81.30;103026.72;5055794;28;20020;-56
2022/11/12 11:28:08;;;;;;;;;;;;;;;11.56;81.31;103026.84;5051777;28;19920;-55
2022/11/12 11:30:37;;;;;;;;;;;;;;;11.70;81.24;103021.25;5046426;28;19925;-55
2022/11/12 11:33:21;;;;;;;;;;;;;;;11.86;81.38;103018.25;5051192;28;20390;-56
2022/11/12 11:35:46;;;;;;;;;;;;;;;12.05;81.28;103019.25;5042978;28;19932;-56
2022/11/12 11:38:14;;;;;;;;;;;;;;;12.25;80.84;103022.06;5048726;28;19917;-55
2022/11/12 11:40:49;;;;;;;;;;;;;;;12.50;79.76;103021.72;5058098;28;19916;-55
2022/11/12 11:43:17;;;;;;;;;;;;;;;12.76;78.57;103016.84;5044612;28;19970;-57
2022/11/12 11:45:55;;;;;;;;;;;;;;;12.98;76.27;103011.31;5052161;28;20058;-56
2022/11/12 11:48:26;;;;;;;;;;;;;;;13.20;75.23;103017.47;5048741;28;20269;-57
2022/11/12 11:50:58;;;;;;;;;;;;;;;13.39;74.56;103014.06;5048862;28;19917;-56
2022/11/12 11:53:30;;;;;;;;;;;;;;;13.58;75.21;103019.41;5051759;28;20019;-55
2022/11/12 11:55:58;;;;;;;;;;;;;;;13.72;75.32;102996.84;5051059;28;20352;-54
2022/11/12 11:58:42;;;;;;;;;;;;;;;13.87;74.99;103001.63;5049169;28;19920;-56
2022/11/12 12:01:26;;;;;;;;;;;;;;;13.96;74.04;102997.28;5049131;28;19931;-57
2022/11/12 12:04:10;;;;;;;;;;;;;;;14.07;74.83;102996.28;5041915;28;20033;-57
2022/11/12 12:06:41;;;;;;;;;;;;;;;14.13;74.55;102990.38;5047828;28;19921;-57
2022/11/12 12:09:12;;;;;;;;;;;;;;;14.22;74.21;102984.22;5047911;28;19921;-58
2022/11/12 12:11:56;;;;;;;;;;;;;;;14.34;74.32;102982.22;5045673;28;19917;-56
2022/11/12 12:14:39;;;;;;;;;;;;;;;14.44;74.10;102989.25;5047446;28;20509;-57
2022/11/12 12:17:33;;;;;;;;;;;;;;;14.57;73.96;102976.44;5049012;28;20022;-56
2022/11/12 12:20:04;;;;;;;;;;;;;;;14.69;72.98;102974.44;5039266;28;20494;-56
2022/11/12 12:22:35;;;;;;;;;;;;;;;14.79;72.66;102982.44;5048832;28;20369;-56
2022/11/12 12:25:02;;;;;;;;;;;;;;;14.89;72.30;102975.22;5048425;28;19924;-54
2022/11/12 12:27:39;;;;;;;;;;;;;;;15.01;72.52;102971.34;5050247;28;19921;-54
2022/11/12 12:30:17;;;;;;;;;;;;;;;15.13;72.27;102972.84;5052629;28;19923;-56
2022/11/12 12:32:47;;;;;;;;;;;;;;;15.28;71.15;102967.00;5043389;28;19995;-55
2022/11/12 12:35:21;;;;;;;;;;;;;;;15.44;70.33;102951.97;5049987;28;19921;-57
2022/11/12 12:37:47;;;;;;;;;;;;;;;15.65;70.44;102950.88;5048036;28;20315;-56
2022/11/12 12:40:24;;;;;;;;;;;;;;;15.82;69.31;102944.66;5049332;28;20007;-56
2022/11/12 12:42:53;;;;;;;;;;;;;;;16.03;68.55;102944.34;5053238;28;20028;-56
2022/11/12 12:45:27;;;;;;;;;;;;;;;16.20;68.58;102948.03;5045178;28;19920;-57
2022/11/12 12:47:54;;;;;;;;;;;;;;;16.37;68.68;102945.28;5046106;28;19952;-55
2022/11/12 12:50:20;;;;;;;;;;;;;;;16.57;68.73;102945.06;5049244;28;19966;-55
2022/11/12 12:53:17;;;;;;;;;;;;;;;16.74;67.43;102946.88;5048769;28;19912;-56
2022/11/12 12:55:49;;;;;;;;;;;;;;;16.92;67.34;102947.63;5014883;28;19917;-57
2022/11/12 12:58:16;;;;;;;;;;;;;;;17.09;65.55;102950.41;5041337;28;20003;-55
2022/11/12 13:00:45;;;;;;;;;;;;;;;17.20;65.38;102942.88;5050503;28;19913;-56
2022/11/12 13:03:11;;;;;;;;;;;;;;;17.29;64.39;102941.06;5049018;28;20319;-56
2022/11/12 13:05:38;;;;;;;;;;;;;;;17.37;63.97;102930.34;5048577;28;19928;-56
2022/11/12 13:08:09;;;;;;;;;;;;;;;17.49;63.83;102920.97;5048917;28;20464;-57
2022/11/12 13:10:37;;;;;;;;;;;;;;;17.58;62.49;102924.50;5046470;28;20538;-56
2022/11/12 13:13:05;;;;;;;;;;;;;;;17.69;63.20;102915.31;5048795;28;20042;-57
2022/11/12 13:15:52;;;;;;;;;;;;;;;17.78;62.27;102917.00;5055974;28;19913;-56
2022/11/12 13:18:36;;;;;;;;;;;;;;;17.89;61.88;102908.59;5047879;28;19952;-55